sensor_id;sensor_type;location;lat;lon;timestamp;P1;durP1;ratioP1;P2;durP2;ratioP2
44078;SDS011;29744;49.078;12.878;2024-03-06T00:03:34;4.05;;;2.35;;
44078;SDS011;29744;49.078;12.878;2024-03-06T00:08:34;3.83;;;2.45;;
44078;SDS011;29744;49.078;12.878;2024-03-06T00:13:35;3.92;;;2.25;;
44078;SDS011;29744;49.078;12.878;2024-03-06T00:18:35;3.72;;;2.42;;
44078;SDS011;29744;49.078;12.878;2024-03-06T00:23:35;3.83;;;2.17;;
44078;SDS011;29744;49.078;12.878;2024-03-06T00:28:37;3.65;;;2.20;;
44078;SDS011;29744;49.078;12.878;2024-03-06T00:33:39;4.15;;;2.20;;
44078;SDS011;29744;49.078;12.878;2024-03-06T00:38:40;3.63;;;2.40;;
44078;SDS011;29744;49.078;12.878;2024-03-06T00:43:40;3.47;;;2.17;;
44078;SDS011;29744;49.078;12.878;2024-03-06T00:48:41;3.54;;;2.20;;
44078;SDS011;29744;49.078;12.878;2024-03-06T00:53:42;4.47;;;2.30;;
44078;SDS011;29744;49.078;12.878;2024-03-06T00:58:42;3.42;;;2.04;;
44078;SDS011;29744;49.078;12.878;2024-03-06T01:03:42;3.33;;;2.05;;
44078;SDS011;29744;49.078;12.878;2024-03-06T01:08:43;3.78;;;2.22;;
44078;SDS011;29744;49.078;12.878;2024-03-06T01:13:43;4.22;;;2.42;;
44078;SDS011;29744;49.078;12.878;2024-03-06T01:18:43;3.65;;;2.17;;
44078;SDS011;29744;49.078;12.878;2024-03-06T01:23:44;3.63;;;2.10;;
44078;SDS011;29744;49.078;12.878;2024-03-06T01:28:44;3.08;;;1.90;;
44078;SDS011;29744;49.078;12.878;2024-03-06T01:33:44;4.10;;;2.40;;
44078;SDS011;29744;49.078;12.878;2024-03-06T01:38:45;4.10;;;2.24;;
44078;SDS011;29744;49.078;12.878;2024-03-06T01:43:46;3.42;;;1.83;;
44078;SDS011;29744;49.078;12.878;2024-03-06T01:48:47;3.05;;;1.90;;
44078;SDS011;29744;49.078;12.878;2024-03-06T01:53:47;3.20;;;1.80;;
44078;SDS011;29744;49.078;12.878;2024-03-06T01:58:48;3.42;;;2.00;;
44078;SDS011;29744;49.078;12.878;2024-03-06T02:03:48;3.83;;;2.17;;
44078;SDS011;29744;49.078;12.878;2024-03-06T02:08:49;2.60;;;1.70;;
44078;SDS011;29744;49.078;12.878;2024-03-06T02:13:49;3.20;;;1.92;;
44078;SDS011;29744;49.078;12.878;2024-03-06T02:18:51;3.35;;;1.83;;
44078;SDS011;29744;49.078;12.878;2024-03-06T02:23:52;3.08;;;1.75;;
44078;SDS011;29744;49.078;12.878;2024-03-06T02:28:54;3.45;;;1.98;;
44078;SDS011;29744;49.078;12.878;2024-03-06T02:33:56;3.28;;;1.77;;
44078;SDS011;29744;49.078;12.878;2024-03-06T02:38:58;3.03;;;1.90;;
44078;SDS011;29744;49.078;12.878;2024-03-06T02:43:59;3.25;;;1.80;;
44078;SDS011;29744;49.078;12.878;2024-03-06T02:48:59;2.75;;;1.55;;
44078;SDS011;29744;49.078;12.878;2024-03-06T02:53:59;2.83;;;1.75;;
44078;SDS011;29744;49.078;12.878;2024-03-06T02:59:00;3.10;;;1.80;;
44078;SDS011;29744;49.078;12.878;2024-03-06T03:04:03;3.22;;;1.70;;
44078;SDS011;29744;49.078;12.878;2024-03-06T03:09:03;3.17;;;1.90;;
44078;SDS011;29744;49.078;12.878;2024-03-06T03:14:04;3.30;;;1.92;;
44078;SDS011;29744;49.078;12.878;2024-03-06T03:19:04;3.40;;;1.88;;
44078;SDS011;29744;49.078;12.878;2024-03-06T03:24:05;3.50;;;1.80;;
44078;SDS011;29744;49.078;12.878;2024-03-06T03:29:05;3.10;;;1.95;;
44078;SDS011;29744;49.078;12.878;2024-03-06T03:34:05;3.05;;;1.60;;
44078;SDS011;29744;49.078;12.878;2024-03-06T03:39:06;3.22;;;1.70;;
44078;SDS011;29744;49.078;12.878;2024-03-06T03:44:08;2.88;;;1.60;;
44078;SDS011;29744;49.078;12.878;2024-03-06T03:49:08;3.17;;;1.92;;
44078;SDS011;29744;49.078;12.878;2024-03-06T03:54:09;2.97;;;1.70;;
44078;SDS011;29744;49.078;12.878;2024-03-06T03:59:09;2.97;;;1.70;;
44078;SDS011;29744;49.078;12.878;2024-03-06T04:04:10;3.33;;;1.90;;
44078;SDS011;29744;49.078;12.878;2024-03-06T04:09:10;2.84;;;1.70;;
44078;SDS011;29744;49.078;12.878;2024-03-06T04:14:11;2.65;;;1.63;;
44078;SDS011;29744;49.078;12.878;2024-03-06T04:19:11;3.25;;;1.80;;
44078;SDS011;29744;49.078;12.878;2024-03-06T04:24:11;3.22;;;1.80;;
44078;SDS011;29744;49.078;12.878;2024-03-06T04:29:12;2.25;;;1.38;;
44078;SDS011;29744;49.078;12.878;2024-03-06T04:34:13;2.35;;;1.48;;
44078;SDS011;29744;49.078;12.878;2024-03-06T04:39:13;3.13;;;1.70;;
44078;SDS011;29744;49.078;12.878;2024-03-06T04:44:14;2.67;;;1.63;;
44078;SDS011;29744;49.078;12.878;2024-03-06T04:49:15;3.20;;;1.80;;
44078;SDS011;29744;49.078;12.878;2024-03-06T04:54:15;2.70;;;1.77;;
44078;SDS011;29744;49.078;12.878;2024-03-06T04:59:15;3.10;;;1.58;;
44078;SDS011;29744;49.078;12.878;2024-03-06T05:04:16;2.65;;;1.50;;
44078;SDS011;29744;49.078;12.878;2024-03-06T05:09:16;1.88;;;1.23;;
44078;SDS011;29744;49.078;12.878;2024-03-06T05:14:17;2.65;;;1.58;;
44078;SDS011;29744;49.078;12.878;2024-03-06T05:19:17;2.42;;;1.38;;
44078;SDS011;29744;49.078;12.878;2024-03-06T05:24:17;2.50;;;1.33;;
44078;SDS011;29744;49.078;12.878;2024-03-06T05:29:18;2.30;;;1.40;;
44078;SDS011;29744;49.078;12.878;2024-03-06T05:34:18;2.50;;;1.50;;
44078;SDS011;29744;49.078;12.878;2024-03-06T05:39:18;2.65;;;1.60;;
44078;SDS011;29744;49.078;12.878;2024-03-06T05:44:19;2.25;;;1.30;;
44078;SDS011;29744;49.078;12.878;2024-03-06T05:49:19;2.00;;;1.24;;
44078;SDS011;29744;49.078;12.878;2024-03-06T05:54:20;2.10;;;1.30;;
44078;SDS011;29744;49.078;12.878;2024-03-06T05:59:20;2.83;;;1.40;;
44078;SDS011;29744;49.078;12.878;2024-03-06T06:04:21;2.78;;;1.35;;
44078;SDS011;29744;49.078;12.878;2024-03-06T06:09:22;2.33;;;1.38;;
44078;SDS011;29744;49.078;12.878;2024-03-06T06:14:22;2.66;;;1.48;;
44078;SDS011;29744;49.078;12.878;2024-03-06T06:19:22;2.20;;;1.40;;
44078;SDS011;29744;49.078;12.878;2024-03-06T06:24:22;2.40;;;1.30;;
44078;SDS011;29744;49.078;12.878;2024-03-06T06:29:23;2.18;;;1.30;;
44078;SDS011;29744;49.078;12.878;2024-03-06T06:34:23;2.63;;;1.40;;
44078;SDS011;29744;49.078;12.878;2024-03-06T06:39:27;1.55;;;1.00;;
44078;SDS011;29744;49.078;12.878;2024-03-06T06:44:27;2.00;;;1.20;;
44078;SDS011;29744;49.078;12.878;2024-03-06T06:49:28;2.42;;;1.27;;
44078;SDS011;29744;49.078;12.878;2024-03-06T06:54:28;2.20;;;1.20;;
44078;SDS011;29744;49.078;12.878;2024-03-06T06:59:29;2.08;;;1.05;;
44078;SDS011;29744;49.078;12.878;2024-03-06T07:04:29;2.08;;;1.25;;
44078;SDS011;29744;49.078;12.878;2024-03-06T07:09:29;1.90;;;1.20;;
44078;SDS011;29744;49.078;12.878;2024-03-06T07:14:30;2.33;;;1.27;;
44078;SDS011;29744;49.078;12.878;2024-03-06T07:19:31;1.55;;;1.10;;
44078;SDS011;29744;49.078;12.878;2024-03-06T07:24:31;2.40;;;1.20;;
44078;SDS011;29744;49.078;12.878;2024-03-06T07:29:31;1.98;;;1.13;;
44078;SDS011;29744;49.078;12.878;2024-03-06T07:34:32;2.05;;;1.30;;
44078;SDS011;29744;49.078;12.878;2024-03-06T07:39:32;1.80;;;1.10;;
44078;SDS011;29744;49.078;12.878;2024-03-06T07:44:34;1.90;;;1.20;;
44078;SDS011;29744;49.078;12.878;2024-03-06T07:49:36;1.70;;;1.13;;
44078;SDS011;29744;49.078;12.878;2024-03-06T07:54:36;2.08;;;1.27;;
44078;SDS011;29744;49.078;12.878;2024-03-06T07:59:36;1.90;;;1.10;;
44078;SDS011;29744;49.078;12.878;2024-03-06T08:04:37;1.76;;;1.00;;
44078;SDS011;29744;49.078;12.878;2024-03-06T08:09:37;1.88;;;1.10;;
44078;SDS011;29744;49.078;12.878;2024-03-06T08:14:37;1.92;;;1.17;;
44078;SDS011;29744;49.078;12.878;2024-03-06T08:19:38;1.77;;;1.13;;
44078;SDS011;29744;49.078;12.878;2024-03-06T08:24:38;1.50;;;1.00;;
44078;SDS011;29744;49.078;12.878;2024-03-06T08:29:38;1.56;;;1.04;;
44078;SDS011;29744;49.078;12.878;2024-03-06T08:34:39;1.50;;;0.95;;
44078;SDS011;29744;49.078;12.878;2024-03-06T08:39:39;1.58;;;0.95;;
44078;SDS011;29744;49.078;12.878;2024-03-06T08:44:39;1.27;;;0.90;;
44078;SDS011;29744;49.078;12.878;2024-03-06T08:49:40;1.75;;;1.08;;
44078;SDS011;29744;49.078;12.878;2024-03-06T08:54:41;1.77;;;1.00;;
44078;SDS011;29744;49.078;12.878;2024-03-06T08:59:41;1.48;;;1.10;;
44078;SDS011;29744;49.078;12.878;2024-03-06T09:04:43;1.92;;;1.17;;
44078;SDS011;29744;49.078;12.878;2024-03-06T09:09:43;1.98;;;1.20;;
44078;SDS011;29744;49.078;12.878;2024-03-06T09:14:44;1.90;;;1.10;;
44078;SDS011;29744;49.078;12.878;2024-03-06T09:19:44;2.22;;;1.23;;
44078;SDS011;29744;49.078;12.878;2024-03-06T09:24:45;1.98;;;1.20;;
44078;SDS011;29744;49.078;12.878;2024-03-06T09:29:45;2.00;;;1.20;;
44078;SDS011;29744;49.078;12.878;2024-03-06T09:34:46;3.70;;;1.65;;
44078;SDS011;29744;49.078;12.878;2024-03-06T09:39:48;3.35;;;2.00;;
44078;SDS011;29744;49.078;12.878;2024-03-06T09:44:48;4.93;;;1.65;;
44078;SDS011;29744;49.078;12.878;2024-03-06T09:49:49;4.07;;;2.00;;
44078;SDS011;29744;49.078;12.878;2024-03-06T09:54:54;3.78;;;1.90;;
44078;SDS011;29744;49.078;12.878;2024-03-06T09:59:54;4.55;;;1.95;;
44078;SDS011;29744;49.078;12.878;2024-03-06T10:04:55;4.00;;;1.80;;
44078;SDS011;29744;49.078;12.878;2024-03-06T10:09:55;3.33;;;1.73;;
44078;SDS011;29744;49.078;12.878;2024-03-06T10:14:55;4.15;;;1.92;;
44078;SDS011;29744;49.078;12.878;2024-03-06T10:19:57;4.03;;;1.70;;
44078;SDS011;29744;49.078;12.878;2024-03-06T10:25:01;4.38;;;1.60;;
44078;SDS011;29744;49.078;12.878;2024-03-06T10:30:04;3.50;;;1.88;;
44078;SDS011;29744;49.078;12.878;2024-03-06T10:35:17;3.25;;;1.60;;
44078;SDS011;29744;49.078;12.878;2024-03-06T10:40:18;3.65;;;1.80;;
44078;SDS011;29744;49.078;12.878;2024-03-06T10:45:19;2.70;;;1.60;;
44078;SDS011;29744;49.078;12.878;2024-03-06T10:50:27;3.20;;;1.70;;
44078;SDS011;29744;49.078;12.878;2024-03-06T10:55:27;3.47;;;1.40;;
44078;SDS011;29744;49.078;12.878;2024-03-06T11:00:29;3.08;;;1.60;;
44078;SDS011;29744;49.078;12.878;2024-03-06T11:05:30;3.50;;;1.40;;
44078;SDS011;29744;49.078;12.878;2024-03-06T11:10:31;3.75;;;1.75;;
44078;SDS011;29744;49.078;12.878;2024-03-06T11:15:32;3.33;;;1.50;;
44078;SDS011;29744;49.078;12.878;2024-03-06T11:20:33;2.53;;;1.35;;
44078;SDS011;29744;49.078;12.878;2024-03-06T11:30:47;2.83;;;1.60;;
44078;SDS011;29744;49.078;12.878;2024-03-06T11:41:20;2.45;;;1.40;;
44078;SDS011;29744;49.078;12.878;2024-03-06T11:46:41;3.03;;;1.60;;
44078;SDS011;29744;49.078;12.878;2024-03-06T11:51:45;2.25;;;1.33;;
44078;SDS011;29744;49.078;12.878;2024-03-06T11:56:49;2.78;;;1.50;;
44078;SDS011;29744;49.078;12.878;2024-03-06T12:01:51;3.65;;;1.52;;
44078;SDS011;29744;49.078;12.878;2024-03-06T12:06:56;3.17;;;1.60;;
44078;SDS011;29744;49.078;12.878;2024-03-06T12:11:57;1.75;;;1.00;;
44078;SDS011;29744;49.078;12.878;2024-03-06T12:16:58;3.10;;;1.65;;
44078;SDS011;29744;49.078;12.878;2024-03-06T12:22:00;2.50;;;1.40;;
44078;SDS011;29744;49.078;12.878;2024-03-06T12:27:09;2.85;;;1.50;;
44078;SDS011;29744;49.078;12.878;2024-03-06T12:32:16;2.35;;;1.40;;
44078;SDS011;29744;49.078;12.878;2024-03-06T12:37:20;2.75;;;1.40;;
44078;SDS011;29744;49.078;12.878;2024-03-06T12:42:28;2.63;;;1.48;;
44078;SDS011;29744;49.078;12.878;2024-03-06T12:47:28;2.25;;;1.30;;
44078;SDS011;29744;49.078;12.878;2024-03-06T12:52:29;2.53;;;1.25;;
44078;SDS011;29744;49.078;12.878;2024-03-06T12:57:29;2.25;;;1.30;;
44078;SDS011;29744;49.078;12.878;2024-03-06T13:02:29;2.38;;;1.30;;
44078;SDS011;29744;49.078;12.878;2024-03-06T13:07:30;1.90;;;1.20;;
44078;SDS011;29744;49.078;12.878;2024-03-06T13:12:30;2.50;;;1.38;;
44078;SDS011;29744;49.078;12.878;2024-03-06T13:17:32;2.42;;;1.30;;
44078;SDS011;29744;49.078;12.878;2024-03-06T13:22:33;2.53;;;1.50;;
44078;SDS011;29744;49.078;12.878;2024-03-06T13:27:33;2.22;;;1.23;;
44078;SDS011;29744;49.078;12.878;2024-03-06T13:32:42;2.80;;;1.45;;
44078;SDS011;29744;49.078;12.878;2024-03-06T13:37:48;2.57;;;1.40;;
44078;SDS011;29744;49.078;12.878;2024-03-06T13:42:51;2.55;;;1.50;;
44078;SDS011;29744;49.078;12.878;2024-03-06T13:47:51;2.30;;;1.33;;
44078;SDS011;29744;49.078;12.878;2024-03-06T13:52:51;2.40;;;1.33;;
44078;SDS011;29744;49.078;12.878;2024-03-06T13:57:52;3.14;;;1.30;;
44078;SDS011;29744;49.078;12.878;2024-03-06T14:02:52;2.22;;;1.38;;
44078;SDS011;29744;49.078;12.878;2024-03-06T14:07:52;2.88;;;1.77;;
44078;SDS011;29744;49.078;12.878;2024-03-06T14:12:53;2.20;;;1.40;;
44078;SDS011;29744;49.078;12.878;2024-03-06T14:17:55;2.35;;;1.30;;
44078;SDS011;29744;49.078;12.878;2024-03-06T14:22:55;2.38;;;1.30;;
44078;SDS011;29744;49.078;12.878;2024-03-06T14:27:55;2.58;;;1.45;;
44078;SDS011;29744;49.078;12.878;2024-03-06T14:32:55;2.95;;;1.50;;
44078;SDS011;29744;49.078;12.878;2024-03-06T14:37:56;2.53;;;1.50;;
44078;SDS011;29744;49.078;12.878;2024-03-06T14:42:56;2.67;;;1.40;;
44078;SDS011;29744;49.078;12.878;2024-03-06T14:47:56;2.83;;;1.50;;
44078;SDS011;29744;49.078;12.878;2024-03-06T14:52:57;2.63;;;1.40;;
44078;SDS011;29744;49.078;12.878;2024-03-06T14:57:57;2.60;;;1.50;;
44078;SDS011;29744;49.078;12.878;2024-03-06T15:02:58;2.50;;;1.50;;
44078;SDS011;29744;49.078;12.878;2024-03-06T15:08:00;2.90;;;1.48;;
44078;SDS011;29744;49.078;12.878;2024-03-06T15:13:01;2.88;;;1.48;;
44078;SDS011;29744;49.078;12.878;2024-03-06T15:18:01;2.80;;;1.50;;
44078;SDS011;29744;49.078;12.878;2024-03-06T15:23:02;3.17;;;1.58;;
44078;SDS011;29744;49.078;12.878;2024-03-06T15:28:02;2.55;;;1.30;;
44078;SDS011;29744;49.078;12.878;2024-03-06T15:33:04;2.65;;;1.52;;
44078;SDS011;29744;49.078;12.878;2024-03-06T15:38:05;2.40;;;1.20;;
44078;SDS011;29744;49.078;12.878;2024-03-06T15:43:05;2.80;;;1.60;;
44078;SDS011;29744;49.078;12.878;2024-03-06T15:48:06;2.97;;;1.60;;
44078;SDS011;29744;49.078;12.878;2024-03-06T15:53:06;2.90;;;1.60;;
44078;SDS011;29744;49.078;12.878;2024-03-06T15:58:07;3.13;;;1.50;;
44078;SDS011;29744;49.078;12.878;2024-03-06T16:03:08;3.35;;;1.67;;
44078;SDS011;29744;49.078;12.878;2024-03-06T16:08:08;3.08;;;1.77;;
44078;SDS011;29744;49.078;12.878;2024-03-06T16:13:09;3.10;;;1.77;;
44078;SDS011;29744;49.078;12.878;2024-03-06T16:18:10;2.38;;;1.50;;
44078;SDS011;29744;49.078;12.878;2024-03-06T16:23:10;3.08;;;1.75;;
44078;SDS011;29744;49.078;12.878;2024-03-06T16:28:10;2.50;;;1.60;;
44078;SDS011;29744;49.078;12.878;2024-03-06T16:33:11;2.80;;;1.35;;
44078;SDS011;29744;49.078;12.878;2024-03-06T16:38:11;3.55;;;1.58;;
44078;SDS011;29744;49.078;12.878;2024-03-06T16:43:12;2.80;;;1.58;;
44078;SDS011;29744;49.078;12.878;2024-03-06T16:48:13;2.72;;;1.60;;
44078;SDS011;29744;49.078;12.878;2024-03-06T16:53:13;3.30;;;1.70;;
44078;SDS011;29744;49.078;12.878;2024-03-06T16:58:14;2.92;;;1.50;;
44078;SDS011;29744;49.078;12.878;2024-03-06T17:03:14;2.88;;;1.70;;
44078;SDS011;29744;49.078;12.878;2024-03-06T17:08:14;2.05;;;1.27;;
44078;SDS011;29744;49.078;12.878;2024-03-06T17:13:15;3.22;;;1.80;;
44078;SDS011;29744;49.078;12.878;2024-03-06T17:18:15;3.45;;;2.08;;
44078;SDS011;29744;49.078;12.878;2024-03-06T17:23:15;2.75;;;1.60;;
44078;SDS011;29744;49.078;12.878;2024-03-06T17:28:16;3.15;;;1.80;;
44078;SDS011;29744;49.078;12.878;2024-03-06T17:33:17;3.00;;;1.60;;
44078;SDS011;29744;49.078;12.878;2024-03-06T17:38:17;2.72;;;1.70;;
44078;SDS011;29744;49.078;12.878;2024-03-06T17:43:17;2.85;;;1.75;;
44078;SDS011;29744;49.078;12.878;2024-03-06T17:48:18;3.20;;;1.75;;
44078;SDS011;29744;49.078;12.878;2024-03-06T17:53:18;2.92;;;1.70;;
44078;SDS011;29744;49.078;12.878;2024-03-06T17:58:19;3.53;;;2.00;;
44078;SDS011;29744;49.078;12.878;2024-03-06T18:03:19;3.20;;;1.80;;
44078;SDS011;29744;49.078;12.878;2024-03-06T18:08:22;3.15;;;1.80;;
44078;SDS011;29744;49.078;12.878;2024-03-06T18:13:23;3.17;;;1.67;;
44078;SDS011;29744;49.078;12.878;2024-03-06T18:18:23;2.92;;;1.80;;
44078;SDS011;29744;49.078;12.878;2024-03-06T18:23:23;3.38;;;1.92;;
44078;SDS011;29744;49.078;12.878;2024-03-06T18:28:26;3.58;;;1.88;;
44078;SDS011;29744;49.078;12.878;2024-03-06T18:33:26;3.15;;;1.90;;
44078;SDS011;29744;49.078;12.878;2024-03-06T18:38:27;3.00;;;1.66;;
44078;SDS011;29744;49.078;12.878;2024-03-06T18:43:27;3.50;;;1.80;;
44078;SDS011;29744;49.078;12.878;2024-03-06T18:48:27;2.88;;;1.77;;
44078;SDS011;29744;49.078;12.878;2024-03-06T18:53:28;3.33;;;2.00;;
44078;SDS011;29744;49.078;12.878;2024-03-06T18:58:28;3.40;;;2.10;;
44078;SDS011;29744;49.078;12.878;2024-03-06T19:03:29;3.33;;;2.00;;
44078;SDS011;29744;49.078;12.878;2024-03-06T19:08:29;3.63;;;2.15;;
44078;SDS011;29744;49.078;12.878;2024-03-06T19:13:30;2.80;;;1.83;;
44078;SDS011;29744;49.078;12.878;2024-03-06T19:18:30;3.35;;;2.03;;
44078;SDS011;29744;49.078;12.878;2024-03-06T19:23:31;3.25;;;1.80;;
44078;SDS011;29744;49.078;12.878;2024-03-06T19:28:31;3.20;;;1.90;;
44078;SDS011;29744;49.078;12.878;2024-03-06T19:33:31;3.10;;;1.88;;
44078;SDS011;29744;49.078;12.878;2024-03-06T19:38:32;3.80;;;2.38;;
44078;SDS011;29744;49.078;12.878;2024-03-06T19:43:32;4.03;;;2.10;;
44078;SDS011;29744;49.078;12.878;2024-03-06T19:48:37;4.18;;;2.15;;
44078;SDS011;29744;49.078;12.878;2024-03-06T19:53:38;3.80;;;2.20;;
44078;SDS011;29744;49.078;12.878;2024-03-06T19:58:38;3.47;;;2.30;;
44078;SDS011;29744;49.078;12.878;2024-03-06T20:03:39;4.00;;;2.20;;
44078;SDS011;29744;49.078;12.878;2024-03-06T20:08:39;3.38;;;1.85;;
44078;SDS011;29744;49.078;12.878;2024-03-06T20:13:40;4.35;;;2.40;;
44078;SDS011;29744;49.078;12.878;2024-03-06T20:18:40;3.62;;;2.28;;
44078;SDS011;29744;49.078;12.878;2024-03-06T20:23:40;3.65;;;2.17;;
44078;SDS011;29744;49.078;12.878;2024-03-06T20:28:41;2.70;;;1.73;;
44078;SDS011;29744;49.078;12.878;2024-03-06T20:33:44;4.07;;;2.28;;
44078;SDS011;29744;49.078;12.878;2024-03-06T20:38:47;3.58;;;2.17;;
44078;SDS011;29744;49.078;12.878;2024-03-06T20:43:47;3.75;;;2.00;;
44078;SDS011;29744;49.078;12.878;2024-03-06T20:48:47;3.53;;;2.30;;
44078;SDS011;29744;49.078;12.878;2024-03-06T20:53:48;4.18;;;2.30;;
44078;SDS011;29744;49.078;12.878;2024-03-06T20:58:48;3.85;;;2.47;;
44078;SDS011;29744;49.078;12.878;2024-03-06T21:03:50;4.22;;;2.35;;
44078;SDS011;29744;49.078;12.878;2024-03-06T21:08:50;3.72;;;2.33;;
44078;SDS011;29744;49.078;12.878;2024-03-06T21:13:51;3.90;;;2.28;;
44078;SDS011;29744;49.078;12.878;2024-03-06T21:18:51;3.53;;;2.15;;
44078;SDS011;29744;49.078;12.878;2024-03-06T21:23:51;3.92;;;2.28;;
44078;SDS011;29744;49.078;12.878;2024-03-06T21:28:52;4.40;;;2.60;;
44078;SDS011;29744;49.078;12.878;2024-03-06T21:33:53;3.72;;;2.25;;
44078;SDS011;29744;49.078;12.878;2024-03-06T21:38:54;3.78;;;2.17;;
44078;SDS011;29744;49.078;12.878;2024-03-06T21:43:54;3.70;;;2.30;;
44078;SDS011;29744;49.078;12.878;2024-03-06T21:48:55;3.83;;;2.33;;
44078;SDS011;29744;49.078;12.878;2024-03-06T21:53:56;3.83;;;2.20;;
44078;SDS011;29744;49.078;12.878;2024-03-06T21:58:57;3.70;;;2.42;;
44078;SDS011;29744;49.078;12.878;2024-03-06T22:03:57;3.70;;;2.20;;
44078;SDS011;29744;49.078;12.878;2024-03-06T22:08:57;3.67;;;2.30;;
44078;SDS011;29744;49.078;12.878;2024-03-06T22:13:58;3.92;;;2.22;;
44078;SDS011;29744;49.078;12.878;2024-03-06T22:18:58;3.72;;;2.20;;
44078;SDS011;29744;49.078;12.878;2024-03-06T22:23:59;4.18;;;2.40;;
44078;SDS011;29744;49.078;12.878;2024-03-06T22:28:59;3.80;;;2.60;;
44078;SDS011;29744;49.078;12.878;2024-03-06T22:34:00;3.72;;;2.38;;
44078;SDS011;29744;49.078;12.878;2024-03-06T22:39:04;4.10;;;2.55;;
44078;SDS011;29744;49.078;12.878;2024-03-06T22:44:05;3.85;;;2.47;;
44078;SDS011;29744;49.078;12.878;2024-03-06T22:49:06;4.13;;;2.50;;
44078;SDS011;29744;49.078;12.878;2024-03-06T22:54:07;3.47;;;2.28;;
44078;SDS011;29744;49.078;12.878;2024-03-06T22:59:07;4.22;;;2.47;;
44078;SDS011;29744;49.078;12.878;2024-03-06T23:04:07;4.00;;;2.40;;
44078;SDS011;29744;49.078;12.878;2024-03-06T23:09:08;4.20;;;2.65;;
44078;SDS011;29744;49.078;12.878;2024-03-06T23:14:09;4.05;;;2.50;;
44078;SDS011;29744;49.078;12.878;2024-03-06T23:19:09;4.28;;;2.38;;
44078;SDS011;29744;49.078;12.878;2024-03-06T23:24:10;3.85;;;2.45;;
44078;SDS011;29744;49.078;12.878;2024-03-06T23:29:10;4.47;;;2.80;;
44078;SDS011;29744;49.078;12.878;2024-03-06T23:34:12;3.67;;;2.08;;
44078;SDS011;29744;49.078;12.878;2024-03-06T23:39:13;3.67;;;2.42;;
44078;SDS011;29744;49.078;12.878;2024-03-06T23:44:13;3.80;;;2.42;;
44078;SDS011;29744;49.078;12.878;2024-03-06T23:49:13;4.18;;;2.60;;
44078;SDS011;29744;49.078;12.878;2024-03-06T23:54:13;3.75;;;2.40;;
44078;SDS011;29744;49.078;12.878;2024-03-06T23:59:14;3.30;;;2.17;;
